Wrightstown, Wisconsin
Current Conditions -  °F | °C
As of 3:53 PM on Wednesday 28 Jan 2015 (Local Time) from KGRB Reporting Station
Clear Clear  
Wind Chill: 21°   Ceiling: Unl
Heat Index: 31°   Visibility: 9mi
Dew Point: 24°   Wind: 14mph
Humidity: 76%   Direction: 150°SSE
Pressure: 30.02"   Gusts: NA
Location:  44.33°N, 88.16°W
Report Text: KGRB 282153Z AUTO 15012KT 9SM CLR M01/M04 A3002 RMK AO2 SLP178 T10061044
Loading
Personal Weather Stations






























Interactive Weather Map New forecast layout! Learn more

10-Day Weather Forecast

Advertisements
Track Severe Weather on mobile